Time;durP1;ratioP1;P1;durP2;ratioP2;P2;SDS_P1;SDS_P2;PMS_P1;PMS_P2;Temp;Humidity;BMP_temperature;BMP_pressure;BME280_temperature;BME280_humidity;BME280_pressure;Samples;Min_cycle;Max_cycle;Signal;HPM_P1;HPM_P2
2023/01/14 00:00:53;;;;;;;21.40;4.63;;;;;;;10.38;75.72;101387.81;4983404;28;20042;-67
2023/01/14 00:03:20;;;;;;;19.90;4.45;;;;;;;10.62;75.88;101382.25;4949727;28;20053;-67
2023/01/14 00:05:55;;;;;;;19.90;3.60;;;;;;;10.60;75.89;101382.56;4983811;28;20043;-67
2023/01/14 00:08:22;;;;;;;14.05;3.42;;;;;;;10.49;76.59;101383.00;4980276;28;20431;-66
2023/01/14 00:10:50;;;;;;;16.83;3.50;;;;;;;10.61;77.10;101377.88;4981472;28;20050;-67
2023/01/14 00:13:17;;;;;;;17.98;4.00;;;;;;;10.62;77.82;101377.56;4989899;28;20054;-67
2023/01/14 00:15:56;;;;;;;18.65;3.90;;;;;;;10.54;78.55;101374.66;4978939;28;20050;-67
2023/01/14 00:18:24;;;;;;;20.55;3.92;;;;;;;10.60;79.02;101377.03;4976166;28;20050;-67
2023/01/14 00:21:11;;;;;;;15.73;4.40;;;;;;;10.63;79.20;101370.97;4996930;28;20046;-66
2023/01/14 00:23:39;;;;;;;23.48;5.30;;;;;;;10.64;79.68;101364.31;4978776;28;20061;-66
2023/01/14 00:26:09;;;;;;;18.95;3.67;;;;;;;10.67;79.88;101351.91;4978669;28;20607;-67
2023/01/14 00:28:37;;;;;;;19.73;3.72;;;;;;;10.60;80.83;101349.50;4975483;28;20061;-66
2023/01/14 00:31:07;;;;;;;23.77;4.25;;;;;;;10.47;82.56;101350.25;4957264;28;20550;-67
2023/01/14 00:33:36;;;;;;;16.98;3.97;;;;;;;10.38;83.70;101351.19;4977600;28;20058;-67
2023/01/14 00:36:05;;;;;;;19.48;3.88;;;;;;;10.36;84.43;101336.91;4985602;28;20050;-67
2023/01/14 00:38:32;;;;;;;18.45;3.58;;;;;;;10.22;85.51;101345.09;4990104;28;20054;-68
2023/01/14 00:41:08;;;;;;;19.98;3.92;;;;;;;10.19;86.74;101338.25;4983066;28;20042;-67
2023/01/14 00:43:36;;;;;;;18.38;4.13;;;;;;;10.10;88.05;101326.25;4991832;28;20058;-66
2023/01/14 00:46:07;;;;;;;22.08;4.53;;;;;;;10.14;88.90;101320.97;4999558;28;20493;-67
2023/01/14 00:48:36;;;;;;;18.20;4.13;;;;;;;10.16;89.24;101324.25;4988404;28;20410;-67
2023/01/14 00:51:04;;;;;;;15.50;3.25;;;;;;;10.03;90.34;101314.75;4981583;28;20055;-67
2023/01/14 00:53:31;;;;;;;13.63;2.67;;;;;;;10.28;90.50;101312.81;4994137;28;20061;-66
2023/01/14 00:55:59;;;;;;;16.10;3.25;;;;;;;10.16;91.69;101307.75;4972241;28;20061;-67
2023/01/14 00:58:27;;;;;;;14.32;2.50;;;;;;;9.94;92.21;101307.44;4986558;28;20042;-67
2023/01/14 01:00:55;;;;;;;8.95;2.10;;;;;;;10.05;93.31;101296.03;4965881;28;20049;-67
2023/01/14 01:03:23;;;;;;;8.20;1.98;;;;;;;10.03;93.29;101298.25;5014392;28;20051;-66
2023/01/14 01:05:50;;;;;;;7.68;2.60;;;;;;;10.08;93.14;101297.34;4981076;28;20050;-67
2023/01/14 01:08:19;;;;;;;11.80;2.72;;;;;;;10.10;92.91;101292.41;4970616;28;20398;-67
2023/01/14 01:10:50;;;;;;;12.02;3.03;;;;;;;10.03;93.31;101280.91;4990570;28;20049;-67
2023/01/14 01:13:17;;;;;;;10.82;2.85;;;;;;;9.92;94.02;101273.91;4996122;28;20058;-67
2023/01/14 01:15:45;;;;;;;11.25;3.15;;;;;;;9.99;93.83;101263.34;4979526;28;20525;-67
2023/01/14 01:18:13;;;;;;;13.32;3.58;;;;;;;10.22;93.24;101258.94;4993168;28;20050;-67
2023/01/14 01:20:42;;;;;;;14.80;3.38;;;;;;;10.20;92.46;101249.03;4993547;28;20050;-66
2023/01/14 01:23:11;;;;;;;10.50;3.28;;;;;;;10.16;92.75;101253.50;4960779;28;20054;-67
2023/01/14 01:25:39;;;;;;;13.38;3.42;;;;;;;10.19;92.63;101241.06;4980135;28;20054;-65
2023/01/14 01:28:07;;;;;;;13.45;3.30;;;;;;;10.32;92.61;101245.81;4983925;28;20488;-67
2023/01/14 01:30:34;;;;;;;10.18;3.85;;;;;;;10.34;92.41;101242.78;4998830;28;20368;-65
2023/01/14 01:33:01;;;;;;;11.40;3.33;;;;;;;10.37;91.91;101243.00;4981009;28;20506;-66
2023/01/14 01:35:29;;;;;;;12.65;3.35;;;;;;;10.47;92.05;101247.53;4992758;28;20053;-66
2023/01/14 01:37:56;;;;;;;9.52;2.70;;;;;;;10.61;91.58;101238.22;4991083;28;20051;-67
2023/01/14 01:40:24;;;;;;;13.63;3.70;;;;;;;10.59;90.87;101234.94;4993466;28;20055;-66
2023/01/14 01:42:57;;;;;;;13.38;3.15;;;;;;;10.51;92.02;101243.06;4991938;28;20425;-67
2023/01/14 01:45:46;;;;;;;11.00;3.22;;;;;;;10.65;92.22;101253.00;4976666;28;20055;-67
2023/01/14 01:48:22;;;;;;;10.35;3.03;;;;;;;10.82;90.80;101239.50;4962107;28;20051;-66
2023/01/14 01:51:05;;;;;;;9.95;3.53;;;;;;;10.70;91.36;101249.34;4977611;28;20061;-67
2023/01/14 01:53:36;;;;;;;13.20;3.55;;;;;;;10.64;91.89;101248.63;4976983;28;20039;-67
2023/01/14 01:56:05;;;;;;;9.60;2.67;;;;;;;10.50;94.01;101242.22;4961523;28;20055;-67
2023/01/14 01:58:32;;;;;;;11.82;3.45;;;;;;;10.56;93.06;101240.22;5006974;28;20043;-67
2023/01/14 02:01:00;;;;;;;13.70;3.15;;;;;;;10.56;93.04;101234.72;4951918;28;20050;-66
2023/01/14 02:03:39;;;;;;;10.50;3.53;;;;;;;10.49;93.98;101223.25;4974029;28;20057;-66
2023/01/14 02:06:09;;;;;;;12.95;3.30;;;;;;;10.49;95.03;101226.00;4967189;28;20051;-66
2023/01/14 02:08:39;;;;;;;12.90;3.67;;;;;;;10.32;95.33;101223.78;4984458;28;20038;-66
2023/01/14 02:11:15;;;;;;;;;;;;;;;10.42;97.03;101217.31;4977715;28;20051;-69
2023/01/14 02:13:48;;;;;;;9.85;3.35;;;;;;;10.40;96.72;101208.53;4977080;28;19931;-67
2023/01/14 02:16:27;;;;;;;12.00;3.05;;;;;;;10.44;96.32;101204.91;4991311;28;20046;-66
2023/01/14 02:19:17;;;;;;;13.23;3.17;;;;;;;10.42;96.68;101187.84;4977222;28;20055;-67
2023/01/14 02:22:11;;;;;;;13.15;3.40;;;;;;;10.39;96.85;101188.44;4991429;28;20042;-67
2023/01/14 02:24:57;;;;;;;10.43;2.15;;;;;;;10.72;97.82;101179.03;4975105;28;20051;-66
2023/01/14 02:27:47;;;;;;;9.55;2.72;;;;;;;10.58;97.21;101172.72;5009851;28;20058;-66
2023/01/14 02:30:36;;;;;;;6.40;2.15;;;;;;;10.85;97.27;101171.91;4981591;28;20232;-67
2023/01/14 02:33:07;;;;;;;10.02;2.15;;;;;;;11.00;96.25;101172.44;4981163;28;20046;-71
2023/01/14 02:35:42;;;;;;;7.65;2.35;;;;;;;11.10;95.06;101168.69;4989969;28;20065;-67
2023/01/14 02:38:18;;;;;;;9.15;1.92;;;;;;;10.98;94.41;101169.16;5010253;28;20046;-67
2023/01/14 02:41:01;;;;;;;6.80;1.60;;;;;;;11.35;94.15;101171.75;5011687;28;20057;-67
2023/01/14 02:46:31;;;;;;;7.25;1.83;;;;;;;11.15;92.78;101165.81;4980235;28;20051;-67
2023/01/14 02:49:06;;;;;;;10.75;1.63;;;;;;;11.46;91.64;101168.75;4984183;28;20054;-67
2023/01/14 02:51:34;;;;;;;12.07;2.20;;;;;;;11.29;91.44;101170.22;4962992;28;20046;-67
2023/01/14 02:54:01;;;;;;;16.40;2.35;;;;;;;11.43;91.14;101164.69;4994842;28;20069;-66
2023/01/14 02:56:32;;;;;;;10.45;2.00;;;;;;;11.43;90.97;101155.59;4988399;28;20054;-67
2023/01/14 02:59:18;;;;;;;18.02;2.40;;;;;;;11.40;91.11;101150.69;4990348;28;20051;-66
2023/01/14 03:02:05;;;;;;;10.65;2.20;;;;;;;11.37;91.02;101145.81;4975939;28;20055;-67
2023/01/14 03:04:38;;;;;;;14.05;2.28;;;;;;;11.40;90.65;101142.44;4993266;28;20494;-67
2023/01/14 03:07:39;;;;;;;12.18;2.05;;;;;;;11.31;90.88;101137.63;5012632;28;20429;-67
2023/01/14 03:10:28;;;;;;;14.73;2.42;;;;;;;11.32;90.44;101142.03;5014900;28;20058;-67
2023/01/14 03:13:07;;;;;;;12.40;2.38;;;;;;;11.64;89.48;101140.22;4993212;28;20050;-66
2023/01/14 03:15:46;;;;;;;12.60;2.58;;;;;;;11.69;88.28;101123.59;4996011;28;20076;-68
2023/01/14 03:18:23;;;;;;;15.73;2.67;;;;;;;11.83;85.69;101119.66;4969131;28;20046;-67
2023/01/14 03:20:59;;;;;;;12.65;2.28;;;;;;;11.52;87.00;101106.84;5004739;28;20053;-67
2023/01/14 03:23:30;;;;;;;10.88;2.25;;;;;;;11.53;87.55;101097.44;4991545;28;20422;-67
2023/01/14 03:25:59;;;;;;;13.00;2.20;;;;;;;11.57;86.80;101093.75;4998829;28;20069;-66
2023/01/14 03:28:37;;;;;;;13.75;2.90;;;;;;;11.63;86.69;101089.75;4994282;28;20043;-65
2023/01/14 03:31:08;;;;;;;17.17;2.77;;;;;;;11.34;87.20;101075.53;5014590;28;20118;-67
2023/01/14 03:33:51;;;;;;;16.42;2.17;;;;;;;11.17;88.32;101064.31;4999508;28;20051;-67
2023/01/14 03:36:19;;;;;;;22.20;2.95;;;;;;;11.29;88.21;101059.09;4976434;28;20525;-66
2023/01/14 03:38:49;;;;;;;17.88;2.08;;;;;;;11.37;87.46;101047.31;4962567;28;20047;-65
2023/01/14 03:42:17;;;;;;;16.02;3.10;;;;;;;11.35;87.16;101033.84;4996701;28;20046;-66
2023/01/14 03:44:19;;;;;;;14.20;2.00;;;;;;;11.48;86.49;101040.44;4979194;28;20403;-66
2023/01/14 03:46:47;;;;;;;14.88;2.90;;;;;;;11.51;86.69;101026.03;4992354;28;20065;-67
2023/01/14 03:49:14;;;;;;;12.52;2.58;;;;;;;11.32;87.54;101031.72;4998925;28;20050;-68
2023/01/14 03:51:49;;;;;;;21.63;2.80;;;;;;;11.31;86.94;101021.78;4994908;28;20057;-67
2023/01/14 03:54:22;;;;;;;12.48;2.20;;;;;;;11.45;86.35;101018.19;4977383;28;20126;-66
2023/01/14 03:56:55;;;;;;;17.83;2.47;;;;;;;11.34;87.45;100999.13;4991925;28;20046;-68
2023/01/14 03:59:34;;;;;;;22.15;3.30;;;;;;;11.18;88.01;101013.56;5007898;28;20039;-65
2023/01/14 04:02:03;;;;;;;18.27;3.33;;;;;;;11.22;88.17;101014.59;4997384;28;20524;-67
2023/01/14 04:04:31;;;;;;;26.77;4.13;;;;;;;11.41;87.11;101003.38;5013706;28;20053;-67
2023/01/14 04:06:59;;;;;;;20.23;3.13;;;;;;;11.33;87.14;100994.72;4976281;28;20070;-67
2023/01/14 04:09:26;;;;;;;23.23;2.95;;;;;;;11.31;87.78;100990.66;4993846;28;20414;-67
2023/01/14 04:11:53;;;;;;;20.10;3.13;;;;;;;11.29;87.37;100992.91;4992823;28;20051;-66
2023/01/14 04:17:06;;;;;;;24.15;3.50;;;;;;;11.36;87.14;100965.72;4991502;28;20525;-67
2023/01/14 04:19:34;;;;;;;19.48;3.40;;;;;;;11.49;87.34;100947.50;4999435;28;20053;-66
2023/01/14 04:22:01;;;;;;;26.75;4.15;;;;;;;11.39;86.84;100956.81;5009325;28;20509;-66
2023/01/14 04:24:29;;;;;;;24.05;3.75;;;;;;;11.40;87.14;100943.84;4979581;28;20051;-66
2023/01/14 04:26:57;;;;;;;31.50;4.22;;;;;;;11.40;87.40;100947.44;4992867;28;20061;-66
2023/01/14 04:29:24;;;;;;;20.02;3.50;;;;;;;11.45;86.70;100943.72;5006759;28;20050;-66
2023/01/14 04:31:52;;;;;;;30.02;4.28;;;;;;;11.12;88.35;100943.13;4991359;28;20061;-67
2023/01/14 04:34:19;;;;;;;22.17;3.55;;;;;;;11.32;87.94;100931.63;4978642;28;20069;-67
2023/01/14 04:36:46;;;;;;;25.55;4.30;;;;;;;11.50;87.05;100927.88;4985244;28;20054;-65
2023/01/14 04:39:14;;;;;;;24.58;4.38;;;;;;;11.53;86.71;100920.88;4992609;28;20046;-65
2023/01/14 04:44:27;;;;;;;22.30;3.55;;;;;;;11.64;86.33;100919.50;4958576;28;20055;-66
2023/01/14 04:46:54;;;;;;;23.27;4.15;;;;;;;11.73;85.97;100915.72;5005661;28;20054;-66
2023/01/14 04:49:22;;;;;;;27.33;4.35;;;;;;;11.78;84.62;100914.75;4997647;28;20387;-66
2023/01/14 04:51:49;;;;;;;19.30;3.90;;;;;;;11.86;85.19;100912.03;4997812;28;20054;-66
2023/01/14 04:54:16;;;;;;;27.58;4.63;;;;;;;11.74;84.72;100900.78;4980184;28;20051;-66
2023/01/14 04:56:43;;;;;;;23.60;4.38;;;;;;;11.44;85.85;100898.75;4989679;28;20213;-67
2023/01/14 04:59:11;;;;;;;22.98;3.90;;;;;;;11.38;86.69;100899.22;4997658;28;20057;-65
2023/01/14 05:01:38;;;;;;;25.00;3.45;;;;;;;11.43;86.43;100882.53;4991931;28;20050;-67
2023/01/14 05:04:06;;;;;;;31.20;4.40;;;;;;;11.58;85.94;100874.69;4997984;28;20054;-66
2023/01/14 05:06:33;;;;;;;31.67;4.35;;;;;;;11.60;85.63;100880.69;4995475;28;20054;-67
2023/01/14 05:09:00;;;;;;;28.73;3.97;;;;;;;11.47;85.92;100881.59;4994142;28;20402;-67
2023/01/14 05:11:28;;;;;;;27.98;5.00;;;;;;;11.60;85.90;100875.19;4988173;28;20077;-65
2023/01/14 05:13:55;;;;;;;19.13;3.28;;;;;;;11.70;85.28;100874.13;4996397;28;20046;-68
2023/01/14 05:16:23;;;;;;;23.83;4.80;;;;;;;11.47;85.84;100884.38;4999459;28;20066;-67
2023/01/14 05:18:51;;;;;;;20.90;3.15;;;;;;;11.61;85.87;100889.78;4989868;28;20046;-66
2023/01/14 05:21:19;;;;;;;27.35;3.90;;;;;;;11.48;84.82;100874.13;4992614;28;20057;-66
2023/01/14 05:23:46;;;;;;;18.50;3.58;;;;;;;11.71;83.99;100870.22;4975919;28;20047;-66
2023/01/14 05:26:14;;;;;;;24.23;3.72;;;;;;;12.13;81.48;100872.38;4984792;28;20348;-66
2023/01/14 05:28:41;;;;;;;26.65;3.72;;;;;;;11.90;82.36;100851.47;4996858;28;20059;-67
2023/01/14 05:31:08;;;;;;;19.85;4.47;;;;;;;11.70;83.83;100863.09;5010137;28;20057;-66
2023/01/14 05:33:36;;;;;;;19.85;3.55;;;;;;;11.66;83.64;100856.56;5011576;28;20088;-66
2023/01/14 05:36:05;;;;;;;29.77;3.60;;;;;;;11.62;83.57;100853.59;4996836;28;20513;-67
2023/01/14 05:38:32;;;;;;;21.08;3.38;;;;;;;11.60;83.71;100846.75;4960249;28;20062;-66
2023/01/14 05:40:59;;;;;;;21.95;3.95;;;;;;;11.45;84.27;100848.00;5014160;28;20050;-65
2023/01/14 05:46:16;;;;;;;24.58;3.40;;;;;;;11.53;84.10;100825.16;4988140;28;20050;-65
2023/01/14 05:48:44;;;;;;;27.38;3.67;;;;;;;11.54;84.17;100832.28;5008401;28;20069;-67
2023/01/14 05:51:12;;;;;;;17.90;3.42;;;;;;;11.38;84.32;100822.81;4985525;28;20050;-66
2023/01/14 05:53:40;;;;;;;24.98;3.42;;;;;;;11.52;84.39;100812.50;4991887;28;20407;-67
2023/01/14 05:56:08;;;;;;;21.55;3.30;;;;;;;11.72;83.22;100805.63;4968029;28;20050;-66
2023/01/14 05:58:35;;;;;;;19.40;3.22;;;;;;;11.93;82.40;100798.41;4979861;28;20063;-65
2023/01/14 06:06:50;;;;;;;25.83;3.45;;;;;;;11.46;82.79;100796.38;4964849;28;20071;-66
2023/01/14 06:09:19;;;;;;;21.85;3.83;;;;;;;11.37;82.77;100770.75;4960274;28;20047;-65
2023/01/14 06:11:50;;;;;;;16.83;2.97;;;;;;;11.65;82.84;100770.22;4981316;28;20055;-66
2023/01/14 06:14:17;;;;;;;23.48;3.67;;;;;;;11.56;82.44;100760.28;4975892;28;20049;-66
2023/01/14 06:16:51;;;;;;;19.40;3.45;;;;;;;11.53;82.41;100766.41;4979752;28;20058;-66
2023/01/14 06:19:19;;;;;;;16.60;3.20;;;;;;;11.75;80.99;100744.28;4976551;28;20506;-66
2023/01/14 06:21:46;;;;;;;24.05;4.22;;;;;;;11.49;81.40;100763.47;4988494;28;20058;-68
2023/01/14 06:24:13;;;;;;;25.02;3.42;;;;;;;11.65;82.09;100744.56;4986377;28;20093;-66
2023/01/14 06:26:41;;;;;;;17.25;2.53;;;;;;;11.85;80.48;100746.75;4974507;28;20054;-68
2023/01/14 06:29:11;;;;;;;19.27;3.30;;;;;;;11.76;81.05;100752.25;4976666;28;20061;-67
2023/01/14 06:31:40;;;;;;;19.08;3.65;;;;;;;11.70;81.66;100748.00;4983340;28;20054;-66
2023/01/14 06:34:08;;;;;;;18.65;3.67;;;;;;;11.79;81.18;100724.00;4958572;28;20046;-68
2023/01/14 06:36:36;;;;;;;18.25;3.20;;;;;;;11.62;81.85;100725.88;4988207;28;20049;-67
2023/01/14 06:39:03;;;;;;;12.75;2.63;;;;;;;11.80;81.37;100724.84;4983157;28;20055;-68
2023/01/14 06:41:31;;;;;;;18.50;3.05;;;;;;;11.74;81.44;100718.63;4977860;28;20058;-68
2023/01/14 06:43:58;;;;;;;16.95;3.20;;;;;;;11.52;82.44;100718.72;4976257;28;20077;-66
2023/01/14 06:46:26;;;;;;;18.23;2.78;;;;;;;11.42;82.67;100723.72;4985043;28;20042;-66
2023/01/14 06:48:53;;;;;;;25.95;3.20;;;;;;;11.48;82.91;100703.09;4975708;28;20506;-66
2023/01/14 06:51:21;;;;;;;16.75;3.95;;;;;;;11.64;82.85;100707.06;4985569;28;20046;-65
2023/01/14 06:53:48;;;;;;;16.48;3.10;;;;;;;11.64;82.34;100715.34;4977942;28;20065;-67
2023/01/14 06:56:17;;;;;;;17.00;3.30;;;;;;;11.70;82.08;100689.28;4994527;28;20049;-67
2023/01/14 06:58:48;;;;;;;20.45;2.70;;;;;;;11.63;82.28;100694.41;5010965;28;20061;-67
2023/01/14 07:01:17;;;;;;;17.15;2.80;;;;;;;11.46;82.75;100711.72;4986947;28;20058;-67
2023/01/14 07:03:44;;;;;;;19.05;3.60;;;;;;;11.73;82.15;100692.19;4977197;28;20054;-67
2023/01/14 07:06:12;;;;;;;17.60;3.22;;;;;;;11.66;82.86;100704.81;4998221;28;20139;-67
2023/01/14 07:08:39;;;;;;;19.67;2.80;;;;;;;11.72;82.96;100681.44;4996152;28;20058;-66
2023/01/14 07:11:06;;;;;;;20.75;3.03;;;;;;;11.69;83.18;100677.41;4991903;28;20383;-67
2023/01/14 07:13:34;;;;;;;16.40;3.17;;;;;;;11.74;82.26;100665.41;4989768;28;21319;-67
2023/01/14 07:16:01;;;;;;;17.67;3.50;;;;;;;11.73;82.30;100672.88;4978595;28;20074;-66
2023/01/14 07:18:29;;;;;;;18.30;2.47;;;;;;;11.78;82.63;100666.38;4975205;28;20038;-66
2023/01/14 07:20:58;;;;;;;24.10;3.65;;;;;;;11.94;82.04;100657.28;4981640;28;20058;-66
2023/01/14 07:23:26;;;;;;;17.85;3.22;;;;;;;11.62;82.33;100662.41;4983091;28;20069;-66
2023/01/14 07:25:55;;;;;;;23.50;3.47;;;;;;;11.54;83.32;100669.53;4981808;28;20059;-66
2023/01/14 07:28:26;;;;;;;12.43;2.83;;;;;;;12.01;82.76;100654.88;4986081;28;20517;-66
2023/01/14 07:30:54;;;;;;;16.25;3.10;;;;;;;11.87;82.42;100650.66;4977453;28;20058;-67
2023/01/14 07:33:22;;;;;;;15.30;2.72;;;;;;;11.83;82.58;100642.22;4990464;28;20092;-67
2023/01/14 07:35:51;;;;;;;16.67;3.28;;;;;;;11.78;83.56;100630.50;4979869;28;20053;-66
2023/01/14 07:38:20;;;;;;;19.70;3.10;;;;;;;11.83;84.18;100625.66;4995757;28;20053;-67
2023/01/14 07:40:49;;;;;;;16.60;3.30;;;;;;;11.68;84.36;100628.06;4995306;28;20038;-66
2023/01/14 07:43:16;;;;;;;14.20;2.95;;;;;;;11.42;85.87;100621.66;4984610;28;20517;-66
2023/01/14 07:45:43;;;;;;;17.60;3.55;;;;;;;11.73;84.96;100619.63;4980588;28;20050;-68
2023/01/14 07:48:11;;;;;;;19.27;3.05;;;;;;;11.65;84.69;100623.19;4978221;28;20058;-67
2023/01/14 07:50:38;;;;;;;22.42;3.38;;;;;;;11.65;84.02;100614.91;4995130;28;20050;-67
2023/01/14 07:53:06;;;;;;;16.30;4.10;;;;;;;11.60;84.78;100607.56;4999887;28;20061;-67
2023/01/14 07:55:33;;;;;;;21.80;5.00;;;;;;;11.59;84.95;100605.13;4999129;28;20592;-66
2023/01/14 07:58:01;;;;;;;19.30;3.25;;;;;;;11.60;85.36;100604.81;4983208;28;20053;-67
2023/01/14 08:00:29;;;;;;;20.88;3.05;;;;;;;11.65;85.58;100598.34;4996674;28;20062;-66
2023/01/14 08:02:56;;;;;;;17.48;2.80;;;;;;;11.86;84.56;100593.81;4985551;28;20051;-66
2023/01/14 08:05:24;;;;;;;14.30;2.70;;;;;;;11.80;85.51;100603.41;4977658;28;20047;-66
2023/01/14 08:07:51;;;;;;;14.15;2.58;;;;;;;11.62;86.03;100597.03;4976963;28;20059;-66
2023/01/14 08:10:19;;;;;;;18.15;4.90;;;;;;;11.56;86.72;100580.97;4980349;28;20039;-66
2023/01/14 08:12:46;;;;;;;11.95;3.05;;;;;;;11.30;87.17;100580.91;4996099;28;20057;-65
2023/01/14 08:15:14;;;;;;;14.63;2.63;;;;;;;11.20;89.17;100572.94;4980112;28;20537;-67
2023/01/14 08:17:41;;;;;;;17.20;5.70;;;;;;;11.43;88.13;100565.38;4980260;28;20062;-65
2023/01/14 08:20:09;;;;;;;15.13;2.90;;;;;;;11.53;88.14;100560.34;4975550;28;20039;-67
2023/01/14 08:22:37;;;;;;;21.08;3.13;;;;;;;11.48;88.00;100554.16;4976948;28;20046;-65
2023/01/14 08:25:05;;;;;;;19.25;3.15;;;;;;;11.48;88.07;100551.41;4977350;28;20058;-65
2023/01/14 08:27:33;;;;;;;14.43;2.15;;;;;;;11.48;88.36;100548.66;4978958;28;20050;-66
2023/01/14 08:30:01;;;;;;;10.45;2.58;;;;;;;11.64;88.58;100544.28;4977978;28;20047;-66
2023/01/14 08:32:28;;;;;;;12.40;2.22;;;;;;;11.55;88.00;100554.50;4983611;28;20055;-66
2023/01/14 08:34:55;;;;;;;10.18;2.40;;;;;;;11.86;87.85;100539.44;4962528;28;20047;-67
2023/01/14 08:37:23;;;;;;;14.07;2.95;;;;;;;11.73;87.92;100536.84;4991797;28;20058;-64
2023/01/14 08:39:50;;;;;;;13.35;2.63;;;;;;;11.46;89.09;100529.69;4977932;28;20055;-66
2023/01/14 08:42:17;;;;;;;16.90;3.63;;;;;;;11.54;89.64;100528.06;4979960;28;20057;-68
2023/01/14 08:44:45;;;;;;;16.08;3.92;;;;;;;11.56;89.06;100531.31;4977379;28;20061;-66
2023/01/14 08:47:12;;;;;;;12.43;2.45;;;;;;;11.47;89.93;100534.06;4979441;28;20054;-67
2023/01/14 08:49:39;;;;;;;22.42;2.55;;;;;;;11.59;89.49;100530.66;4980070;28;20541;-67
2023/01/14 08:52:07;;;;;;;14.50;2.35;;;;;;;11.58;89.61;100526.25;4987983;28;20050;-67
2023/01/14 08:54:34;;;;;;;14.25;2.70;;;;;;;11.86;88.86;100525.63;4989510;28;20057;-68
2023/01/14 08:57:01;;;;;;;15.52;2.47;;;;;;;12.12;87.73;100531.94;4996208;28;20050;-68
2023/01/14 08:59:29;;;;;;;14.85;2.92;;;;;;;11.81;88.45;100522.22;4974721;28;20503;-69
2023/01/14 09:01:56;;;;;;;10.57;1.95;;;;;;;11.98;88.76;100511.16;4990682;28;20051;-66
2023/01/14 09:04:27;;;;;;;12.68;2.22;;;;;;;11.87;88.81;100518.97;4997735;28;20058;-67
2023/01/14 09:18:02;;;;;;;10.52;1.80;;;;;;;12.21;87.28;100477.50;4968345;28;20065;-67
2023/01/14 09:20:38;;;;;;;9.20;2.40;;;;;;;12.15;86.71;100489.06;4979178;28;20510;-67
2023/01/14 09:23:08;;;;;;;10.80;2.25;;;;;;;12.20;87.44;100491.63;4988628;28;20050;-67
2023/01/14 09:25:36;;;;;;;9.23;1.92;;;;;;;12.20;88.28;100481.38;4978736;28;20065;-66
2023/01/14 09:28:04;;;;;;;9.52;2.17;;;;;;;12.22;88.41;100489.38;4979721;28;20069;-67
2023/01/14 09:30:33;;;;;;;6.43;1.67;;;;;;;12.12;88.55;100473.13;4986942;28;20053;-67
2023/01/14 09:33:01;;;;;;;6.72;1.73;;;;;;;12.32;88.34;100478.78;5011285;28;20054;-66
2023/01/14 09:35:29;;;;;;;6.90;1.73;;;;;;;12.41;87.54;100474.00;4979949;28;20054;-68
2023/01/14 09:37:57;;;;;;;9.52;1.92;;;;;;;12.23;88.81;100471.63;4979322;28;20054;-65
2023/01/14 09:40:24;;;;;;;14.38;2.13;;;;;;;12.30;89.63;100474.69;4977773;28;20055;-64
2023/01/14 09:42:51;;;;;;;6.20;1.83;;;;;;;13.05;87.47;100480.19;5007269;28;20054;-65
2023/01/14 09:45:34;;;;;;;6.45;1.50;;;;;;;13.49;84.76;100471.22;4977758;28;20068;-65
2023/01/14 09:48:12;;;;;;;8.15;1.83;;;;;;;14.20;81.71;100455.19;4963209;28;20058;-65
2023/01/14 09:50:47;;;;;;;8.85;1.50;;;;;;;14.14;78.72;100462.09;4980960;28;20051;-66
2023/01/14 09:53:49;;;;;;;5.97;1.65;;;;;;;14.16;78.03;100453.44;4980675;28;20059;-71
2023/01/14 09:56:28;;;;;;;5.10;2.00;;;;;;;14.33;78.31;100467.16;4974017;28;20054;-70
2023/01/14 09:59:06;;;;;;;8.23;1.90;;;;;;;14.34;77.55;100465.97;4976957;28;20046;-69
2023/01/14 10:02:17;;;;;;;7.97;1.70;;;;;;;14.38;77.40;100447.53;4975029;28;20050;-70
2023/01/14 10:05:15;;;;;;;7.30;1.70;;;;;;;14.42;77.83;100445.66;4942529;28;20063;-68
2023/01/14 10:07:43;;;;;;;6.50;1.70;;;;;;;14.03;79.54;100444.31;4973887;28;20058;-69
2023/01/14 10:10:30;;;;;;;5.57;1.50;;;;;;;14.37;78.59;100445.88;4975758;28;20050;-69
2023/01/14 10:13:02;;;;;;;10.43;2.35;;;;;;;14.19;78.34;100433.38;4989274;28;20046;-71
2023/01/14 10:15:39;;;;;;;6.78;1.55;;;;;;;14.22;78.39;100432.69;4943203;28;20514;-69
2023/01/14 10:18:22;;;;;;;5.60;1.60;;;;;;;14.28;78.50;100423.84;4955489;28;20526;-68
2023/01/14 10:21:00;;;;;;;7.82;2.10;;;;;;;14.28;78.40;100428.56;4963773;28;20065;-69
2023/01/14 10:23:32;;;;;;;8.30;1.45;;;;;;;14.39;78.94;100422.22;4957666;29;20066;-64
2023/01/14 10:26:01;;;;;;;7.30;1.45;;;;;;;14.68;77.06;100414.84;4971459;28;20070;-66
2023/01/14 10:28:29;;;;;;;7.72;2.00;;;;;;;14.66;76.29;100415.97;4975816;28;20499;-66
2023/01/14 10:30:59;;;;;;;7.10;1.85;;;;;;;14.31;76.91;100406.50;4987125;28;20151;-66
2023/01/14 10:33:26;;;;;;;10.48;1.98;;;;;;;14.23;78.04;100409.38;4968633;28;20066;-67
2023/01/14 10:36:05;;;;;;;8.27;1.80;;;;;;;14.19;78.49;100403.69;4992199;28;20391;-67
2023/01/14 10:38:33;;;;;;;6.88;1.70;;;;;;;14.19;79.11;100402.91;4975129;28;20498;-66
2023/01/14 10:41:04;;;;;;;7.20;1.35;;;;;;;14.44;78.52;100410.91;4976571;28;20047;-65
2023/01/14 10:43:50;;;;;;;;;;;;;;;14.40;77.47;100403.66;4975654;28;20089;-67
2023/01/14 10:46:20;;;;;;;7.20;1.70;;;;;;;14.49;78.35;100401.56;4992370;28;19937;-66
2023/01/14 10:49:00;;;;;;;6.80;2.28;;;;;;;14.27;78.46;100404.78;4975332;28;20055;-66
2023/01/14 10:51:36;;;;;;;7.05;2.13;;;;;;;14.48;78.77;100377.78;4973766;28;20580;-66
2023/01/14 10:54:30;;;;;;;7.57;1.75;;;;;;;14.46;77.75;100374.53;4975215;28;20047;-66
2023/01/14 10:57:16;;;;;;;7.32;1.42;;;;;;;13.91;78.80;100386.16;4954930;28;20059;-64
2023/01/14 10:59:49;;;;;;;6.68;1.50;;;;;;;13.77;80.56;100371.81;4989021;28;20059;-65
2023/01/14 11:02:31;;;;;;;7.10;1.65;;;;;;;13.91;80.34;100377.03;4958011;28;20040;-66
2023/01/14 11:05:01;;;;;;;6.88;1.50;;;;;;;14.09;80.80;100367.34;4969721;28;20630;-66
2023/01/14 11:07:31;;;;;;;9.07;1.95;;;;;;;14.25;79.86;100357.19;4990442;28;20076;-66
2023/01/14 11:10:00;;;;;;;6.20;1.70;;;;;;;14.30;79.59;100349.50;4974881;28;20050;-65
2023/01/14 11:12:30;;;;;;;7.72;1.80;;;;;;;14.03;79.36;100333.56;4957364;28;20499;-67
2023/01/14 11:14:59;;;;;;;8.98;1.77;;;;;;;14.10;80.30;100327.44;4975826;28;20134;-67
2023/01/14 11:17:29;;;;;;;4.55;1.45;;;;;;;14.07;80.25;100330.91;4991321;28;20069;-66
2023/01/14 11:20:20;;;;;;;7.72;3.00;;;;;;;14.27;79.63;100322.50;4976053;28;20105;-67
2023/01/14 11:22:56;;;;;;;7.32;1.80;;;;;;;14.18;80.21;100324.53;4974677;28;20042;-67
2023/01/14 11:25:23;;;;;;;5.82;1.55;;;;;;;14.40;79.51;100317.75;4970593;28;20069;-66
2023/01/14 11:27:51;;;;;;;8.30;2.10;;;;;;;14.68;77.60;100301.97;4985209;28;20499;-73
2023/01/14 11:30:21;;;;;;;7.95;1.60;;;;;;;14.74;77.79;100289.47;4961024;28;20046;-68
2023/01/14 11:32:50;;;;;;;10.07;2.35;;;;;;;14.27;79.10;100291.19;4962265;28;20105;-69
2023/01/14 11:35:28;;;;;;;6.75;1.88;;;;;;;14.61;78.50;100277.63;4976727;28;20475;-66
2023/01/14 11:37:56;;;;;;;7.10;1.70;;;;;;;14.74;77.55;100267.31;4979603;28;20062;-67
2023/01/14 11:41:28;;;;;;;5.38;1.48;;;;;;;14.46;78.09;100264.50;4976683;28;20058;-67
2023/01/14 11:43:17;;;;;;;9.38;1.90;;;;;;;14.52;78.14;100265.84;4965038;28;20068;-67
2023/01/14 11:45:45;;;;;;;5.30;1.63;;;;;;;14.57;78.44;100257.28;4979629;28;20066;-67
2023/01/14 11:48:26;;;;;;;6.07;1.60;;;;;;;14.46;78.83;100258.16;4976093;28;20051;-66
2023/01/14 11:50:59;;;;;;;7.47;1.60;;;;;;;14.33;79.67;100245.50;4993425;28;20070;-67
2023/01/14 11:53:42;;;;;;;6.20;1.70;;;;;;;14.46;79.08;100239.56;4987780;28;20050;-66
2023/01/14 11:56:20;;;;;;;6.25;1.92;;;;;;;14.48;79.64;100234.47;4977331;28;20050;-68
2023/01/14 11:58:47;;;;;;;7.13;1.85;;;;;;;14.70;78.34;100208.16;4956749;28;20055;-67
2023/01/14 12:01:30;;;;;;;5.75;1.60;;;;;;;14.54;79.04;100204.53;5002741;28;20054;-67
2023/01/14 12:04:16;;;;;;;7.00;2.33;;;;;;;14.47;79.30;100202.38;4960160;28;20058;-67
2023/01/14 12:06:51;;;;;;;5.25;1.52;;;;;;;14.52;78.23;100193.03;4994160;28;20047;-66